CMP134 MPTO-TNCM
Flight info
| Callsign | CMP134 |
|---|---|
| Flight time | N/A |
| Altitude | 33000 |
| Route | EGETA3A EGETA DCT PONPO DCT BOGAL DCT SCAPA L335 MLIZA L204 GOUDA |
| Aircraft | B738/M-SDE2E3FGHIRWXY/LB1 |
Departure
| Time | N/A |
|---|---|
| Airport | Tocumen International Airport (MPTO) |
Arrival
| Time | 2026-05-03 22:11 |
|---|---|
| Airport | Princess Juliana International Airport (TNCM) |
| Time | Latitude | Longitude | Altitude | Speed | Heading |
|---|---|---|---|---|---|
| 2026-05-03 20:15 | 10.45768 | -76.06913 | 32903 ft | 487 kts | 57° |
| 2026-05-03 20:15 | 10.49525 | -76.01188 | 32893 ft | 487 kts | 57° |
| 2026-05-03 20:16 | 10.53274 | -75.95469 | 32895 ft | 486 kts | 57° |
| 2026-05-03 20:16 | 10.57020 | -75.89753 | 32896 ft | 486 kts | 57° |
| 2026-05-03 20:17 | 10.60766 | -75.84034 | 32890 ft | 486 kts | 57° |
| 2026-05-03 20:17 | 10.64508 | -75.78317 | 32894 ft | 485 kts | 57° |
| 2026-05-03 20:18 | 10.68245 | -75.72605 | 32890 ft | 485 kts | 56° |
| 2026-05-03 20:18 | 10.71978 | -75.66896 | 32897 ft | 485 kts | 57° |
| 2026-05-03 20:19 | 10.75713 | -75.61183 | 32891 ft | 485 kts | 57° |
| 2026-05-03 20:19 | 10.79443 | -75.55472 | 32891 ft | 485 kts | 56° |
| 2026-05-03 20:20 | 10.83174 | -75.49759 | 32900 ft | 485 kts | 57° |
| 2026-05-03 20:20 | 10.86902 | -75.44046 | 32895 ft | 485 kts | 57° |
| 2026-05-03 20:21 | 10.90626 | -75.38335 | 32903 ft | 484 kts | 57° |
| 2026-05-03 20:21 | 10.94320 | -75.32669 | 32898 ft | 483 kts | 57° |
| 2026-05-03 20:22 | 10.98012 | -75.27002 | 32886 ft | 477 kts | 57° |
| 2026-05-03 20:22 | 11.01655 | -75.21407 | 32882 ft | 472 kts | 57° |
| 2026-05-03 20:23 | 11.05267 | -75.15858 | 32885 ft | 469 kts | 57° |
| 2026-05-03 20:23 | 11.08879 | -75.10305 | 32888 ft | 473 kts | 57° |
| 2026-05-03 20:24 | 11.12531 | -75.04687 | 32891 ft | 478 kts | 56° |
| 2026-05-03 20:24 | 11.16206 | -74.99031 | 32899 ft | 480 kts | 56° |
| 2026-05-03 20:25 | 11.19896 | -74.93351 | 32884 ft | 481 kts | 56° |
| 2026-05-03 20:25 | 11.23584 | -74.87669 | 32881 ft | 481 kts | 56° |
| 2026-05-03 20:26 | 11.27264 | -74.81995 | 32890 ft | 479 kts | 56° |
| 2026-05-03 20:26 | 11.30935 | -74.76334 | 32887 ft | 479 kts | 55° |
| 2026-05-03 20:27 | 11.34605 | -74.70673 | 32888 ft | 479 kts | 56° |
| 2026-05-03 20:27 | 11.38269 | -74.65015 | 32895 ft | 478 kts | 56° |
| 2026-05-03 20:28 | 11.41933 | -74.59354 | 32891 ft | 478 kts | 56° |
| 2026-05-03 20:28 | 11.45593 | -74.53694 | 32890 ft | 478 kts | 55° |
| 2026-05-03 20:29 | 11.49252 | -74.48035 | 32890 ft | 478 kts | 56° |
| 2026-05-03 20:29 | 11.52889 | -74.42409 | 32895 ft | 478 kts | 56° |
| 2026-05-03 20:30 | 11.56544 | -74.36750 | 32896 ft | 478 kts | 56° |
| 2026-05-03 20:30 | 11.60198 | -74.31087 | 32884 ft | 478 kts | 55° |
| 2026-05-03 20:31 | 11.63859 | -74.25416 | 32896 ft | 479 kts | 53° |
| 2026-05-03 20:31 | 11.67525 | -74.19729 | 32907 ft | 481 kts | 55° |
| 2026-05-03 20:32 | 11.71202 | -74.14015 | 32895 ft | 482 kts | 55° |
| 2026-05-03 20:32 | 11.74895 | -74.08288 | 32896 ft | 484 kts | 56° |
| 2026-05-03 20:33 | 11.78591 | -74.02547 | 32899 ft | 484 kts | 55° |
| 2026-05-03 20:33 | 11.82290 | -73.96797 | 32889 ft | 485 kts | 54° |
| 2026-05-03 20:34 | 11.85995 | -73.91032 | 32897 ft | 485 kts | 54° |
| 2026-05-03 20:34 | 11.89698 | -73.85278 | 32893 ft | 485 kts | 55° |
| 2026-05-03 20:35 | 11.93404 | -73.79510 | 32903 ft | 485 kts | 55° |
| 2026-05-03 20:35 | 11.97077 | -73.73770 | 32896 ft | 487 kts | 54° |
| 2026-05-03 20:36 | 12.00813 | -73.67946 | 32895 ft | 488 kts | 55° |
| 2026-05-03 20:36 | 12.04534 | -73.62142 | 32892 ft | 489 kts | 55° |
| 2026-05-03 20:37 | 12.08233 | -73.56368 | 32908 ft | 489 kts | 54° |
| 2026-05-03 20:37 | 12.11966 | -73.50548 | 32893 ft | 490 kts | 55° |
| 2026-05-03 20:38 | 12.15688 | -73.44719 | 32896 ft | 490 kts | 54° |
| 2026-05-03 20:38 | 12.19417 | -73.38889 | 32908 ft | 489 kts | 54° |
| 2026-05-03 20:39 | 12.23137 | -73.33069 | 32892 ft | 489 kts | 54° |
| 2026-05-03 20:39 | 12.26857 | -73.27242 | 32898 ft | 489 kts | 54° |
| 2026-05-03 20:40 | 12.30588 | -73.21409 | 32897 ft | 491 kts | 56° |
| 2026-05-03 20:40 | 12.34320 | -73.15551 | 32897 ft | 492 kts | 55° |
| 2026-05-03 20:41 | 12.38065 | -73.09676 | 32897 ft | 493 kts | 56° |
| 2026-05-03 20:41 | 12.41819 | -73.03788 | 32913 ft | 494 kts | 54° |
| 2026-05-03 20:42 | 12.45567 | -72.97900 | 32900 ft | 494 kts | 55° |
| 2026-05-03 20:42 | 12.49315 | -72.92007 | 32900 ft | 494 kts | 54° |
| 2026-05-03 20:43 | 12.53068 | -72.86107 | 32897 ft | 495 kts | 55° |
| 2026-05-03 20:43 | 12.56823 | -72.80198 | 32910 ft | 495 kts | 55° |
| 2026-05-03 20:44 | 12.60582 | -72.74280 | 32914 ft | 496 kts | 56° |
| 2026-05-03 20:44 | 12.64320 | -72.68393 | 32907 ft | 497 kts | 55° |
| 2026-05-03 20:45 | 12.68086 | -72.62450 | 32913 ft | 497 kts | 56° |
| 2026-05-03 20:45 | 12.71875 | -72.56472 | 32919 ft | 497 kts | 56° |
| 2026-05-03 20:46 | 12.75619 | -72.50564 | 32927 ft | 498 kts | 56° |
| 2026-05-03 20:46 | 12.79390 | -72.44608 | 32916 ft | 498 kts | 56° |
| 2026-05-03 20:47 | 12.83160 | -72.38649 | 32911 ft | 499 kts | 56° |
| 2026-05-03 20:47 | 12.86934 | -72.32683 | 32916 ft | 498 kts | 56° |
| 2026-05-03 20:48 | 12.90696 | -72.26724 | 32925 ft | 498 kts | 56° |
| 2026-05-03 20:48 | 12.94463 | -72.20759 | 32925 ft | 499 kts | 56° |
| 2026-05-03 20:49 | 12.98232 | -72.14785 | 32929 ft | 499 kts | 56° |
| 2026-05-03 20:49 | 13.02001 | -72.08808 | 32927 ft | 499 kts | 56° |
| 2026-05-03 20:50 | 13.05772 | -72.02824 | 32931 ft | 499 kts | 56° |
| 2026-05-03 20:50 | 13.09539 | -71.96842 | 32923 ft | 499 kts | 56° |
| 2026-05-03 20:51 | 13.13305 | -71.90858 | 32933 ft | 499 kts | 56° |
| 2026-05-03 20:51 | 13.17075 | -71.84862 | 32928 ft | 500 kts | 56° |
| 2026-05-03 20:52 | 13.20844 | -71.78865 | 32931 ft | 500 kts | 57° |
| 2026-05-03 20:52 | 13.24615 | -71.72859 | 32928 ft | 501 kts | 57° |
| 2026-05-03 20:53 | 13.28388 | -71.66847 | 32935 ft | 501 kts | 57° |
| 2026-05-03 20:53 | 13.32161 | -71.60832 | 32935 ft | 501 kts | 57° |
| 2026-05-03 20:54 | 13.35930 | -71.54819 | 32939 ft | 501 kts | 57° |
| 2026-05-03 20:54 | 13.41561 | -71.45825 | 32943 ft | 501 kts | 57° |
| 2026-05-03 20:55 | 13.45329 | -71.39804 | 32937 ft | 501 kts | 57° |
| 2026-05-03 20:55 | 13.49095 | -71.33780 | 32941 ft | 501 kts | 57° |
| 2026-05-03 20:56 | 13.52857 | -71.27758 | 32940 ft | 501 kts | 57° |
| 2026-05-03 20:56 | 13.56619 | -71.21733 | 32940 ft | 501 kts | 57° |
| 2026-05-03 20:57 | 13.60382 | -71.15702 | 32942 ft | 501 kts | 57° |
| 2026-05-03 20:57 | 13.64141 | -71.09672 | 32944 ft | 501 kts | 57° |
| 2026-05-03 20:58 | 13.67900 | -71.03639 | 32944 ft | 501 kts | 57° |
| 2026-05-03 20:58 | 13.71657 | -70.97604 | 32946 ft | 501 kts | 57° |
| 2026-05-03 20:59 | 13.74777 | -70.92589 | 32948 ft | 501 kts | 57° |
| 2026-05-03 20:59 | 13.78528 | -70.86556 | 32951 ft | 501 kts | 57° |
| 2026-05-03 21:00 | 13.81648 | -70.81535 | 32950 ft | 501 kts | 57° |
| 2026-05-03 21:00 | 13.86036 | -70.74468 | 32951 ft | 501 kts | 57° |
| 2026-05-03 21:01 | 13.89788 | -70.68420 | 32956 ft | 501 kts | 57° |
| 2026-05-03 21:01 | 13.93536 | -70.62376 | 32954 ft | 501 kts | 57° |
| 2026-05-03 21:02 | 13.97286 | -70.56323 | 32953 ft | 501 kts | 57° |
| 2026-05-03 21:02 | 14.01006 | -70.50314 | 32957 ft | 501 kts | 57° |
| 2026-05-03 21:03 | 14.04747 | -70.44268 | 32952 ft | 500 kts | 57° |
| 2026-05-03 21:03 | 14.08483 | -70.38223 | 32954 ft | 500 kts | 57° |
| 2026-05-03 21:04 | 14.12218 | -70.32177 | 32959 ft | 499 kts | 56° |
| 2026-05-03 21:04 | 14.15945 | -70.26140 | 32956 ft | 499 kts | 56° |
| 2026-05-03 21:05 | 14.19667 | -70.20106 | 32958 ft | 498 kts | 56° |
| 2026-05-03 21:05 | 14.23382 | -70.14078 | 32958 ft | 498 kts | 56° |
| 2026-05-03 21:06 | 14.27073 | -70.08087 | 32957 ft | 498 kts | 56° |
| 2026-05-03 21:06 | 14.30808 | -70.02018 | 32958 ft | 498 kts | 56° |
| 2026-05-03 21:07 | 14.34496 | -69.96022 | 32961 ft | 498 kts | 56° |
| 2026-05-03 21:07 | 14.38205 | -69.89987 | 32963 ft | 498 kts | 56° |
| 2026-05-03 21:08 | 14.41894 | -69.83978 | 32963 ft | 490 kts | 56° |
| 2026-05-03 21:08 | 14.45499 | -69.78101 | 32969 ft | 483 kts | 56° |
| 2026-05-03 21:09 | 14.49092 | -69.72243 | 32969 ft | 483 kts | 56° |
| 2026-05-03 21:09 | 14.52691 | -69.66374 | 32970 ft | 484 kts | 56° |
| 2026-05-03 21:10 | 14.56290 | -69.60497 | 32966 ft | 485 kts | 55° |
| 2026-05-03 21:10 | 14.59896 | -69.54603 | 32967 ft | 486 kts | 56° |
| 2026-05-03 21:11 | 14.63503 | -69.48704 | 32973 ft | 486 kts | 56° |
| 2026-05-03 21:11 | 14.67113 | -69.42793 | 32970 ft | 486 kts | 56° |
| 2026-05-03 21:12 | 14.70722 | -69.36883 | 32977 ft | 486 kts | 56° |
| 2026-05-03 21:12 | 14.74329 | -69.30972 | 32976 ft | 486 kts | 56° |
| 2026-05-03 21:13 | 14.77930 | -69.25060 | 32970 ft | 486 kts | 56° |
| 2026-05-03 21:13 | 14.81509 | -69.19181 | 32977 ft | 486 kts | 56° |
| 2026-05-03 21:14 | 14.85130 | -69.13235 | 32968 ft | 485 kts | 56° |
| 2026-05-03 21:14 | 14.88700 | -69.07369 | 32977 ft | 485 kts | 56° |
| 2026-05-03 21:15 | 14.92286 | -69.01469 | 32980 ft | 484 kts | 56° |
| 2026-05-03 21:15 | 14.95869 | -68.95570 | 32977 ft | 484 kts | 57° |
| 2026-05-03 21:16 | 14.99446 | -68.89672 | 32989 ft | 484 kts | 56° |
| 2026-05-03 21:16 | 15.03022 | -68.83777 | 32974 ft | 483 kts | 56° |
| 2026-05-03 21:17 | 15.05989 | -68.78882 | 32986 ft | 483 kts | 56° |
| 2026-05-03 21:17 | 15.10155 | -68.72000 | 32975 ft | 483 kts | 57° |
| 2026-05-03 21:18 | 15.13719 | -68.66113 | 32979 ft | 483 kts | 56° |
| 2026-05-03 21:18 | 15.17280 | -68.60225 | 32987 ft | 482 kts | 56° |
| 2026-05-03 21:19 | 15.20838 | -68.54330 | 32995 ft | 483 kts | 56° |
| 2026-05-03 21:19 | 15.24396 | -68.48434 | 32991 ft | 483 kts | 56° |
| 2026-05-03 21:20 | 15.27955 | -68.42536 | 32991 ft | 483 kts | 57° |
| 2026-05-03 21:20 | 15.31514 | -68.36633 | 32991 ft | 483 kts | 55° |
| 2026-05-03 21:21 | 15.35069 | -68.30727 | 33000 ft | 483 kts | 55° |
| 2026-05-03 21:21 | 15.38623 | -68.24822 | 32998 ft | 483 kts | 57° |
| 2026-05-03 21:22 | 15.42178 | -68.18910 | 32992 ft | 483 kts | 57° |
| 2026-05-03 21:22 | 15.45732 | -68.12992 | 32992 ft | 483 kts | 56° |
| 2026-05-03 21:23 | 15.49260 | -68.07115 | 32994 ft | 483 kts | 57° |
| 2026-05-03 21:23 | 15.52812 | -68.01196 | 32999 ft | 483 kts | 56° |
| 2026-05-03 21:24 | 15.56361 | -67.95274 | 32992 ft | 483 kts | 56° |
| 2026-05-03 21:24 | 15.59908 | -67.89354 | 33000 ft | 483 kts | 56° |
| 2026-05-03 21:25 | 15.63453 | -67.83428 | 32998 ft | 483 kts | 56° |
| 2026-05-03 21:25 | 15.66998 | -67.77501 | 32998 ft | 483 kts | 56° |
| 2026-05-03 21:26 | 15.70542 | -67.71572 | 32993 ft | 483 kts | 57° |
| 2026-05-03 21:26 | 15.74079 | -67.65643 | 33005 ft | 483 kts | 57° |
| 2026-05-03 21:27 | 15.77618 | -67.59707 | 33000 ft | 483 kts | 57° |
| 2026-05-03 21:27 | 15.81154 | -67.53772 | 33008 ft | 483 kts | 57° |
| 2026-05-03 21:28 | 15.84699 | -67.47849 | 32998 ft | 483 kts | 56° |
| 2026-05-03 21:28 | 15.88322 | -67.41987 | 33005 ft | 482 kts | 54° |
| 2026-05-03 21:29 | 15.91957 | -67.36139 | 33004 ft | 482 kts | 56° |
| 2026-05-03 21:29 | 15.95588 | -67.30285 | 33004 ft | 482 kts | 57° |
| 2026-05-03 21:30 | 15.99203 | -67.24425 | 33006 ft | 481 kts | 56° |
| 2026-05-03 21:30 | 16.02790 | -67.18608 | 33012 ft | 481 kts | 55° |
| 2026-05-03 21:31 | 16.06393 | -67.12752 | 33010 ft | 480 kts | 56° |
| 2026-05-03 21:31 | 16.09992 | -67.06905 | 33009 ft | 480 kts | 56° |
| 2026-05-03 21:32 | 16.13587 | -67.01060 | 33009 ft | 479 kts | 56° |
| 2026-05-03 21:32 | 16.17174 | -66.95218 | 33011 ft | 479 kts | 57° |
| 2026-05-03 21:33 | 16.20758 | -66.89383 | 33016 ft | 478 kts | 56° |
| 2026-05-03 21:33 | 16.24330 | -66.83551 | 33012 ft | 478 kts | 56° |
| 2026-05-03 21:34 | 16.27899 | -66.77727 | 33013 ft | 477 kts | 57° |
| 2026-05-03 21:34 | 16.31466 | -66.71909 | 33005 ft | 477 kts | 56° |
| 2026-05-03 21:35 | 16.35026 | -66.66087 | 33012 ft | 476 kts | 56° |
| 2026-05-03 21:35 | 16.38583 | -66.60267 | 33024 ft | 476 kts | 56° |
| 2026-05-03 21:36 | 16.42118 | -66.54485 | 33022 ft | 476 kts | 57° |
| 2026-05-03 21:36 | 16.45669 | -66.48663 | 33015 ft | 476 kts | 56° |
| 2026-05-03 21:37 | 16.49216 | -66.42848 | 33018 ft | 476 kts | 56° |
| 2026-05-03 21:37 | 16.52763 | -66.37029 | 33022 ft | 475 kts | 57° |
| 2026-05-03 21:38 | 16.56304 | -66.31211 | 33019 ft | 476 kts | 56° |
| 2026-05-03 21:38 | 16.59847 | -66.25384 | 33023 ft | 475 kts | 57° |
| 2026-05-03 21:39 | 16.63390 | -66.19559 | 33018 ft | 476 kts | 56° |
| 2026-05-03 21:39 | 16.66929 | -66.13733 | 33017 ft | 475 kts | 56° |
| 2026-05-03 21:40 | 16.70467 | -66.07905 | 33027 ft | 475 kts | 56° |
| 2026-05-03 21:40 | 16.74005 | -66.02073 | 33032 ft | 475 kts | 56° |
| 2026-05-03 21:41 | 16.77540 | -65.96236 | 33026 ft | 476 kts | 57° |
| 2026-05-03 21:41 | 16.81073 | -65.90400 | 33029 ft | 476 kts | 57° |
| 2026-05-03 21:42 | 16.84605 | -65.84562 | 33024 ft | 476 kts | 57° |
| 2026-05-03 21:42 | 16.88134 | -65.78722 | 33029 ft | 475 kts | 56° |
| 2026-05-03 21:43 | 16.91637 | -65.72917 | 33028 ft | 475 kts | 57° |
| 2026-05-03 21:43 | 16.95160 | -65.67080 | 33027 ft | 475 kts | 56° |
| 2026-05-03 21:44 | 16.98680 | -65.61236 | 33029 ft | 475 kts | 57° |
| 2026-05-03 21:44 | 17.02201 | -65.55394 | 33024 ft | 475 kts | 57° |
| 2026-05-03 21:45 | 17.05727 | -65.49537 | 33036 ft | 475 kts | 57° |
| 2026-05-03 21:45 | 17.09241 | -65.43692 | 33024 ft | 475 kts | 57° |
| 2026-05-03 21:46 | 17.12756 | -65.37838 | 33031 ft | 475 kts | 57° |
| 2026-05-03 21:46 | 17.16270 | -65.31983 | 33029 ft | 475 kts | 58° |
| 2026-05-03 21:47 | 17.19783 | -65.26126 | 33032 ft | 476 kts | 57° |
| 2026-05-03 21:47 | 17.23295 | -65.20263 | 33032 ft | 476 kts | 57° |
| 2026-05-03 21:48 | 17.26790 | -65.14427 | 33033 ft | 476 kts | 57° |
| 2026-05-03 21:48 | 17.30303 | -65.08557 | 33027 ft | 476 kts | 58° |
| 2026-05-03 21:49 | 17.33814 | -65.02679 | 33031 ft | 476 kts | 57° |
| 2026-05-03 21:49 | 17.37327 | -64.96796 | 33041 ft | 476 kts | 57° |
| 2026-05-03 21:50 | 17.40266 | -64.91872 | 33039 ft | 476 kts | 58° |
| 2026-05-03 21:50 | 17.42000 | -64.88962 | 32692 ft | 481 kts | 57° |
| 2026-05-03 21:50 | 17.43773 | -64.85986 | 32021 ft | 479 kts | 57° |
| 2026-05-03 21:51 | 17.45537 | -64.83027 | 31273 ft | 479 kts | 58° |
| 2026-05-03 21:51 | 17.47300 | -64.80067 | 30492 ft | 480 kts | 57° |
| 2026-05-03 21:51 | 17.49072 | -64.77090 | 29565 ft | 482 kts | 57° |
| 2026-05-03 21:51 | 17.50848 | -64.74106 | 28611 ft | 483 kts | 57° |
| 2026-05-03 21:52 | 17.52624 | -64.71118 | 27663 ft | 484 kts | 58° |
| 2026-05-03 21:52 | 17.54404 | -64.68125 | 26706 ft | 484 kts | 57° |
| 2026-05-03 21:52 | 17.56187 | -64.65124 | 25819 ft | 484 kts | 57° |
| 2026-05-03 21:52 | 17.57954 | -64.62147 | 25097 ft | 479 kts | 57° |
| 2026-05-03 21:53 | 17.59710 | -64.59191 | 24389 ft | 475 kts | 56° |
| 2026-05-03 21:53 | 17.61446 | -64.56264 | 23675 ft | 471 kts | 57° |
| 2026-05-03 21:53 | 17.63168 | -64.53361 | 22861 ft | 467 kts | 56° |
| 2026-05-03 21:53 | 17.64872 | -64.50484 | 22137 ft | 462 kts | 56° |
| 2026-05-03 21:54 | 17.66561 | -64.47635 | 21428 ft | 457 kts | 57° |
| 2026-05-03 21:54 | 17.68230 | -64.44817 | 20733 ft | 453 kts | 58° |
| 2026-05-03 21:54 | 17.69886 | -64.42022 | 20025 ft | 450 kts | 58° |
| 2026-05-03 21:54 | 17.71534 | -64.39240 | 19333 ft | 447 kts | 57° |
| 2026-05-03 21:55 | 17.73169 | -64.36475 | 18647 ft | 445 kts | 57° |
| 2026-05-03 21:55 | 17.74797 | -64.33718 | 17892 ft | 444 kts | 58° |
| 2026-05-03 21:55 | 17.76422 | -64.30969 | 17164 ft | 441 kts | 58° |
| 2026-05-03 21:55 | 17.78029 | -64.28248 | 16478 ft | 437 kts | 58° |
| 2026-05-03 21:56 | 17.79593 | -64.25533 | 15792 ft | 433 kts | 60° |
| 2026-05-03 21:56 | 17.80794 | -64.22651 | 15097 ft | 430 kts | 72° |
| 2026-05-03 21:56 | 17.81441 | -64.19622 | 14423 ft | 425 kts | 78° |
| 2026-05-03 21:56 | 17.82067 | -64.16597 | 13917 ft | 418 kts | 77° |
| 2026-05-03 21:57 | 17.82729 | -64.13652 | 13288 ft | 412 kts | 76° |
| 2026-05-03 21:57 | 17.83395 | -64.10755 | 12756 ft | 405 kts | 76° |
| 2026-05-03 21:57 | 17.84053 | -64.07903 | 12161 ft | 399 kts | 77° |
| 2026-05-03 21:57 | 17.84692 | -64.05127 | 11605 ft | 394 kts | 77° |
| 2026-05-03 21:58 | 17.85330 | -64.02338 | 11356 ft | 381 kts | 77° |
| 2026-05-03 21:58 | 17.85929 | -63.99717 | 11242 ft | 366 kts | 77° |
| 2026-05-03 21:58 | 17.86507 | -63.97176 | 11141 ft | 351 kts | 77° |
| 2026-05-03 21:58 | 17.87063 | -63.94728 | 11044 ft | 338 kts | 77° |
| 2026-05-03 21:59 | 17.87601 | -63.92358 | 10865 ft | 329 kts | 77° |
| 2026-05-03 21:59 | 17.88121 | -63.90066 | 10772 ft | 317 kts | 77° |
| 2026-05-03 21:59 | 17.88623 | -63.87852 | 10696 ft | 306 kts | 78° |
| 2026-05-03 21:59 | 17.89108 | -63.85713 | 10600 ft | 297 kts | 77° |
| 2026-05-03 22:00 | 17.89579 | -63.83631 | 10451 ft | 290 kts | 78° |
| 2026-05-03 22:00 | 17.90038 | -63.81600 | 10307 ft | 283 kts | 78° |
| 2026-05-03 22:00 | 17.90490 | -63.79604 | 10050 ft | 281 kts | 77° |
| 2026-05-03 22:00 | 17.90943 | -63.77595 | 9705 ft | 283 kts | 78° |
| 2026-05-03 22:01 | 17.91392 | -63.75606 | 9519 ft | 277 kts | 78° |
| 2026-05-03 22:01 | 17.91835 | -63.73644 | 9241 ft | 276 kts | 78° |
| 2026-05-03 22:01 | 17.92274 | -63.71695 | 9109 ft | 271 kts | 77° |
| 2026-05-03 22:01 | 17.92701 | -63.69810 | 9052 ft | 261 kts | 77° |
| 2026-05-03 22:02 | 17.93111 | -63.67994 | 9029 ft | 250 kts | 78° |
| 2026-05-03 22:02 | 17.93502 | -63.66250 | 9032 ft | 243 kts | 78° |
| 2026-05-03 22:02 | 17.93875 | -63.64539 | 9029 ft | 239 kts | 79° |
| 2026-05-03 22:02 | 17.94248 | -63.62811 | 8736 ft | 247 kts | 78° |
| 2026-05-03 22:03 | 17.94630 | -63.61034 | 8385 ft | 251 kts | 78° |
| 2026-05-03 22:03 | 17.95021 | -63.59223 | 7797 ft | 257 kts | 78° |
| 2026-05-03 22:03 | 17.95417 | -63.57386 | 7336 ft | 257 kts | 79° |
| 2026-05-03 22:03 | 17.95814 | -63.55551 | 6893 ft | 257 kts | 79° |
| 2026-05-03 22:04 | 17.96208 | -63.53725 | 6479 ft | 256 kts | 79° |
| 2026-05-03 22:04 | 17.96601 | -63.51903 | 6035 ft | 255 kts | 79° |
| 2026-05-03 22:04 | 17.96991 | -63.50097 | 5644 ft | 252 kts | 79° |
| 2026-05-03 22:04 | 17.97377 | -63.48308 | 5210 ft | 251 kts | 79° |
| 2026-05-03 22:05 | 17.97762 | -63.46521 | 4765 ft | 250 kts | 78° |
| 2026-05-03 22:05 | 17.98144 | -63.44746 | 4353 ft | 248 kts | 79° |
| 2026-05-03 22:05 | 17.98524 | -63.42986 | 3965 ft | 246 kts | 79° |
| 2026-05-03 22:05 | 17.98895 | -63.41263 | 3811 ft | 244 kts | 79° |
| 2026-05-03 22:06 | 17.99271 | -63.39511 | 3456 ft | 243 kts | 79° |
| 2026-05-03 22:06 | 17.99642 | -63.37787 | 3254 ft | 241 kts | 79° |
| 2026-05-03 22:06 | 18.00006 | -63.36094 | 3138 ft | 234 kts | 79° |
| 2026-05-03 22:06 | 18.00356 | -63.34472 | 3030 ft | 228 kts | 80° |
| 2026-05-03 22:07 | 18.00699 | -63.32872 | 2930 ft | 221 kts | 79° |
| 2026-05-03 22:07 | 18.01032 | -63.31325 | 2825 ft | 214 kts | 80° |
| 2026-05-03 22:07 | 18.01359 | -63.29801 | 2605 ft | 213 kts | 80° |
| 2026-05-03 22:07 | 18.01626 | -63.28291 | 2458 ft | 208 kts | 84° |
| 2026-05-03 22:08 | 18.01830 | -63.26804 | 2309 ft | 203 kts | 83° |
| 2026-05-03 22:08 | 18.02034 | -63.25347 | 2156 ft | 201 kts | 83° |
| 2026-05-03 22:08 | 18.02237 | -63.23901 | 2027 ft | 199 kts | 82° |
| 2026-05-03 22:08 | 18.02440 | -63.22478 | 1873 ft | 195 kts | 82° |
| 2026-05-03 22:09 | 18.02636 | -63.21114 | 1731 ft | 182 kts | 83° |
| 2026-05-03 22:09 | 18.02819 | -63.19831 | 1480 ft | 172 kts | 82° |
| 2026-05-03 22:09 | 18.02989 | -63.18637 | 1272 ft | 159 kts | 82° |
| 2026-05-03 22:10 | 18.03294 | -63.16497 | 977 ft | 139 kts | 83° |
| 2026-05-03 22:10 | 18.03434 | -63.15517 | 746 ft | 132 kts | 82° |
| 2026-05-03 22:10 | 18.03573 | -63.14586 | 504 ft | 126 kts | 82° |
| 2026-05-03 22:10 | 18.03692 | -63.13680 | 371 ft | 124 kts | 81° |
| 2026-05-03 22:11 | 18.03812 | -63.12775 | 291 ft | 126 kts | 78° |
| 2026-05-03 22:11 | 18.03959 | -63.11839 | 53 ft | 133 kts | 82° |
| 2026-05-03 22:11 | 18.04083 | -63.10968 | 24 ft | 96 kts | 82° |
| 2026-05-03 22:11 | 18.04148 | -63.10523 | 20 ft | 15 kts | 81° |
| 2026-05-03 22:12 | 18.04134 | -63.10470 | 21 ft | 3 kts | 200° |
| 2026-05-03 22:12 | 18.04130 | -63.10492 | 22 ft | 3 kts | 274° |
| 2026-05-03 22:12 | 18.04132 | -63.10519 | 22 ft | 5 kts | 274° |
| 2026-05-03 22:12 | 18.04135 | -63.10580 | 20 ft | 14 kts | 268° |
| 2026-05-03 22:13 | 18.04121 | -63.10699 | 20 ft | 17 kts | 261° |
| 2026-05-03 22:13 | 18.04103 | -63.10823 | 20 ft | 17 kts | 261° |
| 2026-05-03 22:13 | 18.04086 | -63.10941 | 20 ft | 17 kts | 261° |
| 2026-05-03 22:13 | 18.04070 | -63.11059 | 21 ft | 16 kts | 261° |
| 2026-05-03 22:14 | 18.04063 | -63.11165 | 21 ft | 14 kts | 253° |
| 2026-05-03 22:14 | 18.04058 | -63.11261 | 21 ft | 14 kts | 302° |
| 2026-05-03 22:14 | 18.04108 | -63.11290 | 20 ft | 0 kts | 347° |
| 2026-05-03 22:14 | 18.04126 | -63.11294 | 20 ft | 7 kts | 348° |
| 2026-05-03 22:15 | 18.04194 | -63.11305 | 20 ft | 6 kts | 352° |
| 2026-05-03 22:15 | 18.04238 | -63.11315 | 20 ft | 7 kts | 326° |
| 2026-05-03 22:15 | 18.04256 | -63.11357 | 20 ft | 5 kts | 311° |
| 2026-05-03 22:15 | 18.04292 | -63.11357 | 21 ft | 5 kts | 4° |
| 2026-05-03 22:16 | 18.04315 | -63.11359 | 20 ft | 1 kts | 349° |
| 2026-05-03 22:16 | 18.04322 | -63.11361 | 20 ft | 1 kts | 350° |
| 2026-05-03 22:16 | 18.04325 | -63.11361 | 20 ft | 0 kts | 350° |